Strona główna
METAR-TAF:

METAR-TAF

Lotnisko :

Port lotniczy Turyn

Turyn, Włochy

Szerokość geograficzna: 45-13N, Długość geograficzna: 007-39E, wysokość: 301 m

Aktualna obserwacja pogody

Raport powstał 35 minut temu, godzina 00:50 UTC
Wiatr 2 kt od północny zachód
Temperatura 9°C
Wilgotność 61%
Ciśnienie 1024 hPa
Widzialność 10 km lub więcej

METAR: LIMF 050050Z AUTO 31002KT 9999 NCD 09/02 Q1024

czas: 03:25 (01:25 UTC)

Prognoza

Raport powstał 2 godziny i 25 minut temu, godzina 23:00 UTC
Prognoza ważna od 05 godzina 00 UTC do 05 godzina 24 UTC
Wiatr 5 kt z kierunków zmiennych
Widzialność 10 km lub więcej
Brak chmur poniżej 1500 m i brak chmur cumulonimbus

TAF: LIMF 042300Z 0500/0524 VRB05KT CAVOK

Obserwacja i prognoza pogody dla ponad 4000 lotnisk (raport METAR i TAF).

Dostępne stacje oznaczono żółtymi i czerwonymi punktami na mapie.

Najedź kursorem aby zobaczyć nazwę stacji.

Kliknij aby zobaczyć obserwacje i prognozy pogody.

Aby zmienić mapę: kliknij na zielony przycisk z czarnym krzyżykiem, aby powiększyć; na zielony przycisk z myślnikiem, aby pomniejszyć; na zielone strzałki, aby przejść do map sąsiednich.


METAR-TAF: